Time;durP1;ratioP1;P1;durP2;ratioP2;P2;SDS_P1;SDS_P2;PMS_P1;PMS_P2;Temp;Humidity;BMP_temperature;BMP_pressure;BME280_temperature;BME280_humidity;BME280_pressure;Samples;Min_cycle;Max_cycle;Signal;HPM_P1;HPM_P2
2021/01/22 00:04:19;;;;;;;5.67;2.30;;;;;;;;;;10361086;28;20252;-70
2021/01/22 00:09:22;;;;;;;5.77;2.10;;;;;;;;;;10343382;28;20245;-72
2021/01/22 00:14:23;;;;;;;4.43;1.83;;;;;;;;;;10355278;28;20208;-71
2021/01/22 00:19:25;;;;;;;6.63;2.40;;;;;;;;;;10366236;28;20672;-70
2021/01/22 00:24:27;;;;;;;7.90;3.30;;;;;;;;;;10359605;28;20608;-70
2021/01/22 00:29:29;;;;;;;7.10;3.17;;;;;;;;;;10368367;28;20215;-70
2021/01/22 00:34:30;;;;;;;7.13;3.30;;;;;;;;;;10365154;28;20274;-69
2021/01/22 00:39:33;;;;;;;7.43;3.10;;;;;;;;;;10349465;28;20697;-69
2021/01/22 00:44:34;;;;;;;7.70;3.40;;;;;;;;;;10363597;28;20323;-70
2021/01/22 00:49:36;;;;;;;8.20;2.97;;;;;;;;;;10360527;28;20651;-71
2021/01/22 00:54:38;;;;;;;6.87;2.80;;;;;;;;;;10369998;28;20618;-71
2021/01/22 00:59:40;;;;;;;5.67;2.77;;;;;;;;;;10360651;28;20293;-70
2021/01/22 01:04:41;;;;;;;6.33;2.70;;;;;;;;;;10364605;28;20236;-70
2021/01/22 01:09:44;;;;;;;6.00;2.73;;;;;;;;;;10356376;28;20605;-70
2021/01/22 01:14:45;;;;;;;6.33;2.80;;;;;;;;;;10362404;28;20208;-70
2021/01/22 01:19:47;;;;;;;5.77;2.33;;;;;;;;;;10366615;28;20329;-71
2021/01/22 01:24:49;;;;;;;5.63;2.30;;;;;;;;;;10353833;28;20194;-70
2021/01/22 01:29:51;;;;;;;3.13;1.63;;;;;;;;;;10362531;28;20402;-71
2021/01/22 01:34:52;;;;;;;3.40;1.63;;;;;;;;;;10356397;28;20194;-70
2021/01/22 01:39:55;;;;;;;3.57;1.90;;;;;;;;;;10362312;28;20389;-70
2021/01/22 01:44:56;;;;;;;3.80;2.00;;;;;;;;;;10363245;28;20252;-70
2021/01/22 01:49:58;;;;;;;4.47;1.80;;;;;;;;;;10366137;28;20644;-71
2021/01/22 01:55:03;;;;;;;4.80;1.67;;;;;;;;;;10355958;28;20202;-70
2021/01/22 02:00:06;;;;;;;3.13;1.60;;;;;;;;;;10360439;28;20236;-70
2021/01/22 02:05:09;;;;;;;3.97;1.80;;;;;;;;;;10362291;28;20202;-71
2021/01/22 02:10:12;;;;;;;3.07;1.70;;;;;;;;;;10356332;28;20301;-70
2021/01/22 02:15:14;;;;;;;3.27;1.60;;;;;;;;;;10359153;28;20245;-71
2021/01/22 02:20:21;;;;;;;3.13;1.43;;;;;;;;;;10361273;28;20535;-71
2021/01/22 02:25:28;;;;;;;3.40;1.70;;;;;;;;;;10358073;28;20197;-71
2021/01/22 02:30:31;;;;;;;3.03;1.50;;;;;;;;;;10360836;28;20289;-70
2021/01/22 02:35:34;;;;;;;4.10;1.70;;;;;;;;;;10351494;28;20635;-69
2021/01/22 02:40:37;;;;;;;2.93;1.63;;;;;;;;;;10355517;28;20706;-70
2021/01/22 02:45:39;;;;;;;4.30;1.97;;;;;;;;;;10356734;28;20202;-71
2021/01/22 02:50:42;;;;;;;2.97;1.60;;;;;;;;;;10361333;28;20210;-70
2021/01/22 02:55:43;;;;;;;3.60;1.90;;;;;;;;;;10360220;28;20276;-71
2021/01/22 03:00:49;;;;;;;4.33;1.73;;;;;;;;;;10357404;28;20619;-71
2021/01/22 03:05:51;;;;;;;4.10;1.80;;;;;;;;;;10356808;28;20709;-70
2021/01/22 03:10:53;;;;;;;3.60;1.70;;;;;;;;;;10366655;28;20229;-69
2021/01/22 03:15:56;;;;;;;5.30;1.70;;;;;;;;;;10366926;28;20250;-68
2021/01/22 03:20:58;;;;;;;5.63;1.70;;;;;;;;;;10366720;28;20218;-70
2021/01/22 03:26:00;;;;;;;2.73;1.40;;;;;;;;;;10367225;28;20268;-68
2021/01/22 03:31:05;;;;;;;3.07;1.50;;;;;;;;;;10366211;28;20222;-69
2021/01/22 03:36:07;;;;;;;3.30;1.60;;;;;;;;;;10363702;28;20302;-70
2021/01/22 03:41:09;;;;;;;3.60;1.33;;;;;;;;;;10367536;28;21128;-71
2021/01/22 03:46:13;;;;;;;3.50;1.40;;;;;;;;;;10354235;28;20640;-70
2021/01/22 03:51:14;;;;;;;3.57;1.20;;;;;;;;;;10365437;28;20304;-72
2021/01/22 03:56:16;;;;;;;2.53;1.30;;;;;;;;;;10354136;28;20195;-71
2021/01/22 04:01:19;;;;;;;1.80;1.03;;;;;;;;;;10360943;28;20295;-71
2021/01/22 04:06:21;;;;;;;1.10;0.90;;;;;;;;;;10367614;28;20198;-71
2021/01/22 04:11:22;;;;;;;2.83;1.20;;;;;;;;;;10366603;28;20245;-72
2021/01/22 04:16:25;;;;;;;2.03;1.10;;;;;;;;;;10371921;28;20278;-71
2021/01/22 04:21:27;;;;;;;2.93;1.27;;;;;;;;;;10366757;28;20214;-70
2021/01/22 04:26:28;;;;;;;2.57;1.20;;;;;;;;;;10366344;28;20261;-70
2021/01/22 04:31:31;;;;;;;2.80;1.20;;;;;;;;;;10358254;28;20305;-70
2021/01/22 04:36:32;;;;;;;2.30;0.93;;;;;;;;;;10362528;28;20273;-71
2021/01/22 04:41:34;;;;;;;1.60;0.70;;;;;;;;;;10360350;28;20755;-71
2021/01/22 04:46:37;;;;;;;1.87;1.00;;;;;;;;;;10363809;28;20206;-71
2021/01/22 04:51:39;;;;;;;2.77;1.10;;;;;;;;;;10362801;28;20293;-70
2021/01/22 04:56:44;;;;;;;2.90;1.20;;;;;;;;;;10365455;28;20667;-70
2021/01/22 05:01:47;;;;;;;1.57;0.90;;;;;;;;;;10360096;28;20297;-70
2021/01/22 05:06:49;;;;;;;2.00;0.93;;;;;;;;;;10353644;28;20277;-69
2021/01/22 05:11:54;;;;;;;0.93;0.40;;;;;;;;;;10364027;28;20701;-72
2021/01/22 05:17:00;;;;;;;0.57;0.37;;;;;;;;;;10360788;28;20237;-73
2021/01/22 05:22:05;;;;;;;2.17;0.80;;;;;;;;;;10363849;28;20245;-70
2021/01/22 05:27:07;;;;;;;1.83;1.00;;;;;;;;;;10362223;28;20563;-71
2021/01/22 05:32:23;;;;;;;2.07;0.70;;;;;;;;;;10357421;28;20402;-71
2021/01/22 05:37:26;;;;;;;2.33;0.87;;;;;;;;;;10360269;28;20304;-70
2021/01/22 05:42:44;;;;;;;2.30;0.93;;;;;;;;;;10332986;28;20218;-71
2021/01/22 05:47:45;;;;;;;2.10;0.90;;;;;;;;;;10338358;28;20664;-69
2021/01/22 05:52:48;;;;;;;1.10;0.60;;;;;;;;;;10359187;28;20310;-70
2021/01/22 05:57:50;;;;;;;4.90;1.43;;;;;;;;;;10365055;28;20198;-70
2021/01/22 06:02:52;;;;;;;2.03;1.13;;;;;;;;;;10358001;28;20233;-71
2021/01/22 06:08:11;;;;;;;3.57;1.20;;;;;;;;;;10369205;28;20297;-71
2021/01/22 06:13:14;;;;;;;1.60;0.87;;;;;;;;;;10358429;28;20214;-71
2021/01/22 06:18:19;;;;;;;4.10;1.30;;;;;;;;;;10363179;28;20194;-71
2021/01/22 06:23:22;;;;;;;1.97;1.00;;;;;;;;;;10358180;28;20229;-71
2021/01/22 06:28:25;;;;;;;1.53;1.00;;;;;;;;;;10357085;28;20294;-71
2021/01/22 06:33:27;;;;;;;2.17;1.00;;;;;;;;;;10366156;28;20195;-71
2021/01/22 06:38:30;;;;;;;3.03;1.20;;;;;;;;;;10363863;28;20218;-70
2021/01/22 06:43:34;;;;;;;2.27;1.10;;;;;;;;;;10365817;28;20222;-70
2021/01/22 06:48:49;;;;;;;2.20;1.10;;;;;;;;;;10365370;28;20225;-70
2021/01/22 06:54:04;;;;;;;4.70;1.30;;;;;;;;;;10368023;28;20204;-70
2021/01/22 06:59:28;;;;;;;3.27;1.07;;;;;;;;;;10363582;28;20294;-70
2021/01/22 07:04:40;;;;;;;2.13;1.20;;;;;;;;;;10353939;28;20647;-72
2021/01/22 07:09:51;;;;;;;3.07;1.27;;;;;;;;;;10370240;28;20222;-70
2021/01/22 07:14:53;;;;;;;5.17;1.57;;;;;;;;;;10351872;28;20697;-70
2021/01/22 07:19:59;;;;;;;5.10;1.57;;;;;;;;;;10369064;28;20659;-71
2021/01/22 07:25:03;;;;;;;5.93;1.83;;;;;;;;;;10347845;28;20567;-70
2021/01/22 07:30:09;;;;;;;3.20;1.40;;;;;;;;;;10364924;28;20245;-70
2021/01/22 07:35:19;;;;;;;4.53;1.57;;;;;;;;;;10364194;28;20277;-70
2021/01/22 07:40:20;;;;;;;4.20;1.40;;;;;;;;;;10348118;28;20229;-70
2021/01/22 07:45:22;;;;;;;2.53;1.33;;;;;;;;;;10361975;28;20186;-70
2021/01/22 07:50:24;;;;;;;3.87;1.70;;;;;;;;;;10361104;28;20300;-71
2021/01/22 07:55:26;;;;;;;4.83;1.70;;;;;;;;;;10365847;28;20243;-70
2021/01/22 08:00:36;;;;;;;4.67;1.60;;;;;;;;;;10343548;28;20225;-70
2021/01/22 08:05:39;;;;;;;8.77;1.80;;;;;;;;;;10361208;28;20198;-70
2021/01/22 08:10:40;;;;;;;3.83;1.50;;;;;;;;;;10346788;28;20729;-70
2021/01/22 08:15:43;;;;;;;5.20;1.50;;;;;;;;;;10346398;28;20647;-70
2021/01/22 08:20:50;;;;;;;4.07;1.57;;;;;;;;;;10365293;28;20214;-68
2021/01/22 08:25:58;;;;;;;4.17;1.70;;;;;;;;;;10364467;28;20267;-69
2021/01/22 08:31:03;;;;;;;1.73;0.80;;;;;;;;;;10354420;28;20222;-70
2021/01/22 08:36:06;;;;;;;5.93;1.80;;;;;;;;;;10354871;28;20249;-69
2021/01/22 08:41:08;;;;;;;4.67;1.70;;;;;;;;;;10350867;28;20225;-69
2021/01/22 08:46:11;;;;;;;4.90;1.73;;;;;;;;;;10361221;28;20201;-71
2021/01/22 08:51:15;;;;;;;3.63;1.57;;;;;;;;;;10362570;28;20226;-70
2021/01/22 08:56:17;;;;;;;6.40;1.70;;;;;;;;;;10363184;28;20195;-69
2021/01/22 09:01:19;;;;;;;4.23;1.67;;;;;;;;;;10366921;28;20282;-70
2021/01/22 09:06:41;;;;;;;6.50;1.90;;;;;;;;;;10355697;28;20203;-70
2021/01/22 09:11:43;;;;;;;5.00;1.58;;;;;;;;;;10364328;28;20234;-71
2021/01/22 09:16:45;;;;;;;6.43;1.83;;;;;;;;;;10365393;28;20294;-69
2021/01/22 09:21:54;;;;;;;4.07;1.60;;;;;;;;;;10366522;28;20215;-70
2021/01/22 09:26:59;;;;;;;5.50;1.30;;;;;;;;;;10353645;28;20201;-69
2021/01/22 09:32:06;;;;;;;3.00;1.10;;;;;;;;;;10348914;28;20662;-72
2021/01/22 09:37:09;;;;;;;4.17;1.00;;;;;;;;;;10348264;28;20532;-70
2021/01/22 09:42:21;;;;;;;4.07;1.20;;;;;;;;;;10362626;28;20667;-70
2021/01/22 09:47:23;;;;;;;5.17;1.40;;;;;;;;;;10366945;28;20245;-70
2021/01/22 09:52:26;;;;;;;3.57;1.33;;;;;;;;;;10348744;28;20664;-69
2021/01/22 09:57:27;;;;;;;4.43;1.47;;;;;;;;;;10364023;28;20256;-70
2021/01/22 10:02:29;;;;;;;2.83;1.33;;;;;;;;;;10362182;28;20237;-72
2021/01/22 10:07:32;;;;;;;3.70;1.50;;;;;;;;;;10344932;28;20250;-71
2021/01/22 10:12:33;;;;;;;2.37;1.17;;;;;;;;;;10358683;28;20217;-70
2021/01/22 10:17:35;;;;;;;1.80;1.00;;;;;;;;;;10358058;28;20245;-69
2021/01/22 10:22:37;;;;;;;3.13;1.43;;;;;;;;;;10363058;28;20563;-70
2021/01/22 10:27:39;;;;;;;5.00;2.00;;;;;;;;;;10343685;28;20217;-71
2021/01/22 10:32:41;;;;;;;6.53;1.77;;;;;;;;;;10357788;28;20691;-71
2021/01/22 10:37:43;;;;;;;4.77;1.93;;;;;;;;;;10363047;28;20636;-70
2021/01/22 10:42:45;;;;;;;4.43;1.80;;;;;;;;;;10359330;28;20241;-70
2021/01/22 10:47:47;;;;;;;2.53;1.57;;;;;;;;;;10360948;28;20254;-72
2021/01/22 10:52:49;;;;;;;2.40;1.30;;;;;;;;;;10359163;28;20222;-70
2021/01/22 10:57:51;;;;;;;1.70;1.30;;;;;;;;;;10357310;28;20217;-70
2021/01/22 11:02:53;;;;;;;2.80;1.30;;;;;;;;;;10359874;28;20214;-69
2021/01/22 11:07:55;;;;;;;1.70;1.50;;;;;;;;;;10352412;28;20213;-68
2021/01/22 11:12:57;;;;;;;2.50;1.47;;;;;;;;;;10344184;28;20313;-69
2021/01/22 11:17:59;;;;;;;1.33;1.30;;;;;;;;;;10353200;28;20213;-70
2021/01/22 11:23:03;;;;;;;1.43;1.20;;;;;;;;;;10358191;28;20568;-70
2021/01/22 11:28:05;;;;;;;0.97;0.83;;;;;;;;;;10351551;28;20265;-70
2021/01/22 11:33:06;;;;;;;1.67;1.47;;;;;;;;;;10343319;28;20321;-71
2021/01/22 11:38:12;;;;;;;2.80;1.57;;;;;;;;;;10362647;28;20221;-69
2021/01/22 11:43:13;;;;;;;3.57;1.40;;;;;;;;;;10360772;28;20260;-70
2021/01/22 11:48:15;;;;;;;2.03;1.10;;;;;;;;;;10369103;28;20194;-70
2021/01/22 11:53:18;;;;;;;2.20;1.23;;;;;;;;;;10365376;28;20293;-70
2021/01/22 11:58:19;;;;;;;2.90;1.03;;;;;;;;;;10367635;28;20729;-70
2021/01/22 12:03:21;;;;;;;1.00;0.90;;;;;;;;;;10368433;28;20206;-70
2021/01/22 12:08:23;;;;;;;1.70;1.30;;;;;;;;;;10366194;28;20218;-70
2021/01/22 12:13:25;;;;;;;0.60;0.60;;;;;;;;;;10365457;28;20249;-70
2021/01/22 12:18:27;;;;;;;4.07;1.30;;;;;;;;;;10367813;28;20280;-71
2021/01/22 12:23:29;;;;;;;2.60;1.00;;;;;;;;;;10363784;28;20194;-70
2021/01/22 12:28:31;;;;;;;2.80;1.07;;;;;;;;;;10344967;28;20221;-71
2021/01/22 12:33:33;;;;;;;1.23;0.90;;;;;;;;;;10366545;28;20201;-70
2021/01/22 12:38:35;;;;;;;3.70;1.40;;;;;;;;;;10354581;28;20297;-71
2021/01/22 12:43:38;;;;;;;2.60;1.30;;;;;;;;;;10364772;28;22323;-71
2021/01/22 12:48:40;;;;;;;2.23;1.00;;;;;;;;;;10374689;28;20274;-70
2021/01/22 12:53:43;;;;;;;3.47;1.03;;;;;;;;;;10371207;28;20221;-70
2021/01/22 12:58:44;;;;;;;2.33;1.13;;;;;;;;;;10365659;28;20273;-70
2021/01/22 13:03:46;;;;;;;1.97;1.20;;;;;;;;;;10345494;28;20281;-72
2021/01/22 13:08:49;;;;;;;1.20;0.90;;;;;;;;;;10364037;28;20774;-71
2021/01/22 13:13:50;;;;;;;2.90;1.10;;;;;;;;;;10365216;28;20202;-71
2021/01/22 13:18:52;;;;;;;1.30;1.00;;;;;;;;;;10362953;28;20273;-70
2021/01/22 13:23:54;;;;;;;3.53;1.30;;;;;;;;;;10346070;28;20497;-70
2021/01/22 13:28:56;;;;;;;2.07;1.17;;;;;;;;;;10360060;28;20226;-70
2021/01/22 13:33:57;;;;;;;2.60;1.07;;;;;;;;;;10362903;28;20237;-72
2021/01/22 13:39:07;;;;;;;3.33;0.90;;;;;;;;;;10359272;28;20355;-70
2021/01/22 13:44:09;;;;;;;4.23;1.10;;;;;;;;;;10360733;28;20245;-70
2021/01/22 13:49:11;;;;;;;4.43;1.23;;;;;;;;;;10359279;28;20222;-69
2021/01/22 13:54:13;;;;;;;4.10;1.33;;;;;;;;;;10356461;28;20202;-71
2021/01/22 13:59:14;;;;;;;2.73;1.10;;;;;;;;;;10344332;28;20296;-70
2021/01/22 14:04:16;;;;;;;3.03;1.00;;;;;;;;;;10346264;28;20186;-70
2021/01/22 14:09:19;;;;;;;3.37;1.00;;;;;;;;;;10360746;28;20222;-69
2021/01/22 14:14:21;;;;;;;4.20;1.23;;;;;;;;;;10362097;28;20253;-69
2021/01/22 14:19:23;;;;;;;2.07;0.87;;;;;;;;;;10345832;28;20276;-70
2021/01/22 14:24:25;;;;;;;2.87;1.07;;;;;;;;;;10363262;28;20229;-70
2021/01/22 14:29:27;;;;;;;3.67;1.40;;;;;;;;;;10361211;28;20277;-69
2021/01/22 14:34:28;;;;;;;4.57;1.40;;;;;;;;;;10361306;28;20547;-70
2021/01/22 14:39:31;;;;;;;2.23;1.00;;;;;;;;;;10363355;28;20651;-69
2021/01/22 14:44:34;;;;;;;3.07;1.20;;;;;;;;;;10359959;28;20199;-70
2021/01/22 14:49:35;;;;;;;2.93;1.00;;;;;;;;;;10361259;28;20249;-69
2021/01/22 14:54:39;;;;;;;3.77;1.37;;;;;;;;;;10364073;28;20573;-70
2021/01/22 14:59:41;;;;;;;1.40;1.00;;;;;;;;;;10358704;28;20225;-69
2021/01/22 15:04:43;;;;;;;2.93;1.20;;;;;;;;;;10350195;28;20201;-69
2021/01/22 15:09:45;;;;;;;4.60;1.70;;;;;;;;;;10368759;28;20222;-70
2021/01/22 15:14:47;;;;;;;1.50;0.87;;;;;;;;;;10364687;28;20597;-69
2021/01/22 15:19:48;;;;;;;4.87;1.80;;;;;;;;;;10362652;28;20637;-68
2021/01/22 15:24:51;;;;;;;7.00;3.00;;;;;;;;;;10374254;28;20681;-71
2021/01/22 15:29:53;;;;;;;4.27;1.27;;;;;;;;;;10368149;28;20218;-70
2021/01/22 15:34:54;;;;;;;3.50;1.60;;;;;;;;;;10369493;28;20226;-72
2021/01/22 15:39:57;;;;;;;1.40;0.93;;;;;;;;;;10355606;28;20282;-68
2021/01/22 15:44:58;;;;;;;4.10;1.40;;;;;;;;;;10355937;28;20234;-69
2021/01/22 15:50:00;;;;;;;4.50;1.33;;;;;;;;;;10366299;28;20708;-70
2021/01/22 15:55:05;;;;;;;2.77;1.10;;;;;;;;;;10344134;28;20210;-70
2021/01/22 16:00:11;;;;;;;4.00;1.70;;;;;;;;;;10363576;28;20303;-69
2021/01/22 16:05:14;;;;;;;4.67;1.43;;;;;;;;;;10365531;28;20203;-71
2021/01/22 16:10:16;;;;;;;3.97;1.20;;;;;;;;;;10366116;28;20222;-70
2021/01/22 16:15:20;;;;;;;2.80;1.50;;;;;;;;;;10348311;28;20675;-70
2021/01/22 16:20:22;;;;;;;6.20;1.90;;;;;;;;;;10367842;28;20338;-69
2021/01/22 16:25:24;;;;;;;7.50;1.77;;;;;;;;;;10364402;28;20226;-69
2021/01/22 16:30:26;;;;;;;3.10;1.30;;;;;;;;;;10350828;28;20214;-68
2021/01/22 16:35:28;;;;;;;3.27;1.60;;;;;;;;;;10364383;28;20331;-70
2021/01/22 16:40:30;;;;;;;5.80;1.40;;;;;;;;;;10344874;28;20256;-70
2021/01/22 16:45:32;;;;;;;5.23;1.73;;;;;;;;;;10365421;28;20258;-70
2021/01/22 16:50:33;;;;;;;2.77;1.27;;;;;;;;;;10357999;28;20316;-70
2021/01/22 16:55:36;;;;;;;4.90;1.60;;;;;;;;;;10363286;28;20550;-71
2021/01/22 17:00:39;;;;;;;6.57;2.20;;;;;;;;;;10351208;28;20223;-71
2021/01/22 17:05:40;;;;;;;5.60;2.03;;;;;;;;;;10363192;28;20194;-70
2021/01/22 17:10:43;;;;;;;4.67;2.10;;;;;;;;;;10364587;28;20226;-70
2021/01/22 17:15:45;;;;;;;5.97;2.10;;;;;;;;;;10356299;28;20304;-71
2021/01/22 17:20:46;;;;;;;6.50;2.77;;;;;;;;;;10356711;28;20976;-70
2021/01/22 17:25:49;;;;;;;4.77;1.87;;;;;;;;;;10356833;28;20217;-70
2021/01/22 17:30:51;;;;;;;6.80;2.03;;;;;;;;;;10361445;28;20300;-69
2021/01/22 17:35:52;;;;;;;9.53;2.70;;;;;;;;;;10345823;28;20686;-70
2021/01/22 17:40:56;;;;;;;17.77;3.00;;;;;;;;;;10359361;28;20297;-69
2021/01/22 17:45:59;;;;;;;7.57;2.30;;;;;;;;;;10356589;28;20294;-71
2021/01/22 17:51:03;;;;;;;5.63;2.27;;;;;;;;;;10338243;28;20222;-71
2021/01/22 17:56:06;;;;;;;11.53;3.27;;;;;;;;;;10362967;28;20577;-71
2021/01/22 18:01:08;;;;;;;5.10;2.50;;;;;;;;;;10347750;28;20243;-71
2021/01/22 18:06:10;;;;;;;9.70;3.10;;;;;;;;;;10363618;28;20202;-71
2021/01/22 18:11:12;;;;;;;10.33;2.90;;;;;;;;;;10337842;28;20234;-70
2021/01/22 18:16:16;;;;;;;6.13;2.87;;;;;;;;;;10344618;28;20238;-71
2021/01/22 18:21:18;;;;;;;9.23;3.53;;;;;;;;;;10362819;28;20677;-71
2021/01/22 18:26:21;;;;;;;6.67;2.90;;;;;;;;;;10359279;28;20269;-71
2021/01/22 18:31:23;;;;;;;9.03;3.37;;;;;;;;;;10357815;28;20252;-71
2021/01/22 18:36:25;;;;;;;9.73;3.13;;;;;;;;;;10361098;28;20289;-70
2021/01/22 18:41:27;;;;;;;6.97;3.00;;;;;;;;;;10363569;28;20301;-71
2021/01/22 18:46:29;;;;;;;9.63;3.00;;;;;;;;;;10366965;28;20225;-71
2021/01/22 18:51:31;;;;;;;7.57;3.00;;;;;;;;;;10370528;28;20350;-68
2021/01/22 18:56:34;;;;;;;6.40;3.00;;;;;;;;;;10362963;28;20217;-70
2021/01/22 19:01:36;;;;;;;6.87;3.20;;;;;;;;;;10356929;28;20222;-69
2021/01/22 19:06:38;;;;;;;20.27;10.43;;;;;;;;;;10342979;28;20234;-73
2021/01/22 19:11:40;;;;;;;9.07;4.13;;;;;;;;;;10362738;28;20278;-69
2021/01/22 19:16:45;;;;;;;9.50;3.83;;;;;;;;;;10366620;28;20286;-70
2021/01/22 19:21:47;;;;;;;7.80;3.53;;;;;;;;;;10360880;28;20219;-70
2021/01/22 19:26:52;;;;;;;13.17;3.70;;;;;;;;;;10368233;28;20201;-71
2021/01/22 19:31:56;;;;;;;11.83;4.07;;;;;;;;;;10375583;28;20234;-68
2021/01/22 19:36:58;;;;;;;9.07;4.27;;;;;;;;;;10371235;28;20313;-71
2021/01/22 19:42:03;;;;;;;8.87;3.83;;;;;;;;;;10368017;28;20701;-73
2021/01/22 19:47:05;;;;;;;13.43;4.27;;;;;;;;;;10359201;28;20617;-69
2021/01/22 19:52:07;;;;;;;8.20;3.57;;;;;;;;;;10376669;28;20226;-70
2021/01/22 19:57:11;;;;;;;8.37;3.43;;;;;;;;;;10365670;28;20190;-71
2021/01/22 20:02:14;;;;;;;8.37;3.37;;;;;;;;;;10364109;28;20222;-69
2021/01/22 20:07:18;;;;;;;9.50;3.33;;;;;;;;;;10378015;28;20193;-69
2021/01/22 20:12:20;;;;;;;11.57;4.23;;;;;;;;;;10380387;28;20283;-71
2021/01/22 20:17:22;;;;;;;9.50;3.77;;;;;;;;;;10370958;28;20190;-70
2021/01/22 20:22:24;;;;;;;7.27;4.13;;;;;;;;;;10367122;28;20298;-70
2021/01/22 20:27:27;;;;;;;8.67;4.43;;;;;;;;;;10363882;28;20193;-70
2021/01/22 20:32:28;;;;;;;8.50;4.30;;;;;;;;;;10365380;28;20312;-70
2021/01/22 20:37:30;;;;;;;8.93;4.03;;;;;;;;;;10346530;28;20206;-70
2021/01/22 20:42:32;;;;;;;10.43;4.67;;;;;;;;;;10363738;28;20701;-69
2021/01/22 20:47:34;;;;;;;9.67;4.50;;;;;;;;;;10363113;28;20253;-69
2021/01/22 20:52:36;;;;;;;8.97;4.70;;;;;;;;;;10365229;28;20234;-69
2021/01/22 20:57:38;;;;;;;11.50;5.20;;;;;;;;;;10364389;28;20218;-70
2021/01/22 21:02:40;;;;;;;8.63;4.70;;;;;;;;;;10363091;28;20321;-71
2021/01/22 21:07:42;;;;;;;11.57;4.80;;;;;;;;;;10364750;28;20198;-70
2021/01/22 21:12:44;;;;;;;8.77;4.83;;;;;;;;;;10362509;28;20217;-70
2021/01/22 21:17:46;;;;;;;8.80;4.53;;;;;;;;;;10372708;28;20218;-69
2021/01/22 21:22:50;;;;;;;8.73;4.80;;;;;;;;;;10369370;28;20301;-71
2021/01/22 21:27:53;;;;;;;8.27;4.83;;;;;;;;;;10381999;28;20198;-71
2021/01/22 21:32:54;;;;;;;10.50;5.40;;;;;;;;;;10367045;28;20320;-70
2021/01/22 21:37:56;;;;;;;10.27;5.20;;;;;;;;;;10345610;28;20202;-69
2021/01/22 21:42:59;;;;;;;12.40;5.77;;;;;;;;;;10363512;28;20222;-69
2021/01/22 21:48:03;;;;;;;10.10;5.60;;;;;;;;;;10364203;28;20793;-69
2021/01/22 21:53:05;;;;;;;10.50;5.97;;;;;;;;;;10359512;28;20632;-67
2021/01/22 21:58:08;;;;;;;11.07;5.90;;;;;;;;;;10357086;28;20195;-68
2021/01/22 22:03:09;;;;;;;11.20;6.20;;;;;;;;;;10343627;28;20337;-69
2021/01/22 22:08:11;;;;;;;11.00;6.17;;;;;;;;;;10351965;28;20195;-68
2021/01/22 22:13:14;;;;;;;10.20;5.97;;;;;;;;;;10361902;28;20618;-68
2021/01/22 22:18:16;;;;;;;11.97;5.53;;;;;;;;;;10348336;28;20205;-68
2021/01/22 22:23:18;;;;;;;10.63;5.40;;;;;;;;;;10363180;28;20269;-68
2021/01/22 22:28:20;;;;;;;9.43;5.20;;;;;;;;;;10365245;28;20647;-70
2021/01/22 22:33:22;;;;;;;8.70;4.80;;;;;;;;;;10361178;28;20241;-71
2021/01/22 22:38:24;;;;;;;10.57;5.30;;;;;;;;;;10358574;28;20256;-71
2021/01/22 22:43:26;;;;;;;9.90;5.23;;;;;;;;;;10357841;28;20544;-70
2021/01/22 22:48:28;;;;;;;10.70;4.90;;;;;;;;;;10368367;28;20757;-72
2021/01/22 22:53:30;;;;;;;10.40;5.23;;;;;;;;;;10363060;28;20230;-70
2021/01/22 22:58:32;;;;;;;8.50;4.97;;;;;;;;;;10335793;28;20233;-69
2021/01/22 23:03:34;;;;;;;11.93;5.60;;;;;;;;;;10342256;28;20232;-69
2021/01/22 23:08:37;;;;;;;9.57;5.67;;;;;;;;;;10333700;28;20203;-68
2021/01/22 23:13:40;;;;;;;10.77;5.33;;;;;;;;;;10343922;28;20279;-68
2021/01/22 23:18:41;;;;;;;12.33;5.67;;;;;;;;;;10358444;28;20593;-69
2021/01/22 23:23:43;;;;;;;9.53;5.70;;;;;;;;;;10342528;28;20246;-69
2021/01/22 23:28:46;;;;;;;10.90;6.27;;;;;;;;;;10371876;28;20201;-68
2021/01/22 23:33:48;;;;;;;11.53;6.33;;;;;;;;;;10372855;28;20285;-69
2021/01/22 23:38:50;;;;;;;10.77;6.47;;;;;;;;;;10354085;28;20242;-67
2021/01/22 23:43:53;;;;;;;11.67;5.83;;;;;;;;;;10366518;28;20755;-70
2021/01/22 23:48:54;;;;;;;12.10;6.53;;;;;;;;;;10367263;28;20556;-71
2021/01/22 23:53:56;;;;;;;11.83;7.07;;;;;;;;;;10367690;28;20222;-71
2021/01/22 23:58:59;;;;;;;11.33;6.77;;;;;;;;;;10368032;28;20236;-70
